Time;durP1;ratioP1;P1;durP2;ratioP2;P2;SDS_P1;SDS_P2;PMS_P1;PMS_P2;Temp;Humidity;BMP_temperature;BMP_pressure;BME280_temperature;BME280_humidity;BME280_pressure;Samples;Min_cycle;Max_cycle;Signal;HPM_P1;HPM_P2
2022/10/09 00:01:43;;;;;;;5.70;4.40;;;;;;;;;;105303;1283;22937;-35
2022/10/09 00:04:14;;;;;;;6.90;4.70;;;;;;;;;;105339;1283;22590;-36
2022/10/09 00:06:47;;;;;;;6.80;4.70;;;;;;;;;;105222;1289;24251;-36
2022/10/09 00:09:19;;;;;;;6.00;4.00;;;;;;;;;;105274;1286;22462;-35
2022/10/09 00:11:51;;;;;;;6.60;4.40;;;;;;;;;;105123;1288;24533;-36
2022/10/09 00:14:26;;;;;;;6.10;4.70;;;;;;;;;;105287;1286;25956;-36
2022/10/09 00:16:58;;;;;;;6.90;4.50;;;;;;;;;;105237;1285;22474;-36
2022/10/09 00:19:30;;;;;;;6.20;4.20;;;;;;;;;;105313;1288;25389;-37
2022/10/09 00:22:03;;;;;;;5.20;4.00;;;;;;;;;;105308;1288;22938;-37
2022/10/09 00:24:35;;;;;;;6.70;4.20;;;;;;;;;;105351;1282;22598;-36
2022/10/09 00:27:07;;;;;;;6.10;4.10;;;;;;;;;;105286;1288;22423;-36
2022/10/09 00:29:42;;;;;;;5.90;4.30;;;;;;;;;;105244;1289;22491;-36
2022/10/09 00:32:14;;;;;;;5.90;4.20;;;;;;;;;;105285;1288;22957;-37
2022/10/09 00:34:47;;;;;;;5.80;4.00;;;;;;;;;;105298;1288;22553;-36
2022/10/09 00:37:19;;;;;;;5.90;4.20;;;;;;;;;;105301;1290;22471;-36
2022/10/09 00:39:51;;;;;;;5.50;3.80;;;;;;;;;;105309;1289;23132;-37
2022/10/09 00:42:25;;;;;;;5.90;3.90;;;;;;;;;;105302;1288;22472;-37
2022/10/09 00:45:00;;;;;;;5.90;3.90;;;;;;;;;;105272;1290;24581;-36
2022/10/09 00:47:38;;;;;;;5.40;3.50;;;;;;;;;;105262;1289;25255;-37
2022/10/09 00:50:18;;;;;;;5.40;3.90;;;;;;;;;;105249;1288;24472;-37
2022/10/09 00:52:54;;;;;;;7.10;3.90;;;;;;;;;;105289;1288;22455;-37
2022/10/09 00:55:29;;;;;;;5.60;4.10;;;;;;;;;;105280;1288;25282;-36
2022/10/09 00:58:03;;;;;;;6.00;3.70;;;;;;;;;;105267;1285;22842;-36
2022/10/09 01:00:35;;;;;;;5.80;3.60;;;;;;;;;;105340;1289;22476;-37
2022/10/09 01:03:07;;;;;;;5.60;3.70;;;;;;;;;;105300;1289;23722;-37
2022/10/09 01:06:02;;;;;;;5.60;3.70;;;;;;;;;;105298;1288;22695;-36
2022/10/09 01:08:44;;;;;;;6.50;3.70;;;;;;;;;;105246;1288;24545;-36
2022/10/09 01:11:27;;;;;;;5.60;3.50;;;;;;;;;;105305;1288;22838;-36
2022/10/09 01:14:08;;;;;;;5.10;3.40;;;;;;;;;;105282;1288;22456;-37
2022/10/09 01:16:47;;;;;;;5.80;3.60;;;;;;;;;;105233;1285;22472;-41
2022/10/09 01:19:48;;;;;;;5.30;3.60;;;;;;;;;;105312;1288;22465;-36
2022/10/09 01:22:37;;;;;;;4.80;3.40;;;;;;;;;;105305;1290;22461;-37
2022/10/09 01:25:18;;;;;;;5.30;3.50;;;;;;;;;;105316;1290;22541;-36
2022/10/09 01:27:50;;;;;;;5.40;3.30;;;;;;;;;;105227;1288;22595;-36
2022/10/09 01:30:23;;;;;;;5.00;3.10;;;;;;;;;;105297;1288;25210;-36
2022/10/09 01:32:56;;;;;;;4.60;3.30;;;;;;;;;;105273;1290;22464;-36
2022/10/09 01:35:30;;;;;;;4.60;3.00;;;;;;;;;;105299;1288;25615;-37
2022/10/09 01:38:04;;;;;;;5.00;3.10;;;;;;;;;;105277;1290;25400;-36
2022/10/09 01:40:37;;;;;;;5.20;2.90;;;;;;;;;;105289;1285;22512;-36
2022/10/09 01:43:09;;;;;;;4.80;3.10;;;;;;;;;;105313;1294;22475;-37
2022/10/09 01:45:47;;;;;;;5.00;3.20;;;;;;;;;;105327;1288;23363;-36
2022/10/09 01:48:26;;;;;;;5.10;3.10;;;;;;;;;;105255;1288;22541;-37
2022/10/09 01:51:04;;;;;;;4.70;3.00;;;;;;;;;;105277;1290;22471;-37
2022/10/09 01:53:40;;;;;;;5.10;3.30;;;;;;;;;;105260;1298;22520;-36
2022/10/09 01:56:21;;;;;;;4.70;2.90;;;;;;;;;;105238;1282;58759;-41
2022/10/09 01:59:01;;;;;;;5.40;3.10;;;;;;;;;;105188;1285;24356;-36
2022/10/09 02:01:36;;;;;;;4.70;3.00;;;;;;;;;;105322;1288;25345;-36
2022/10/09 02:04:13;;;;;;;5.10;3.20;;;;;;;;;;105307;1285;25399;-36
2022/10/09 02:06:47;;;;;;;4.50;2.90;;;;;;;;;;105296;1289;25255;-36
2022/10/09 02:09:20;;;;;;;5.20;3.20;;;;;;;;;;105267;1282;24706;-37
2022/10/09 02:11:59;;;;;;;4.60;3.10;;;;;;;;;;105293;1282;25512;-36
2022/10/09 02:14:31;;;;;;;4.60;2.80;;;;;;;;;;105311;1290;22534;-37
2022/10/09 02:17:10;;;;;;;4.40;3.00;;;;;;;;;;105300;1290;22436;-37
2022/10/09 02:19:48;;;;;;;5.20;3.00;;;;;;;;;;105285;1290;23845;-36
2022/10/09 02:22:26;;;;;;;5.90;2.80;;;;;;;;;;105323;1295;22508;-36
2022/10/09 02:25:01;;;;;;;4.70;2.90;;;;;;;;;;105319;1282;22470;-36
2022/10/09 02:27:34;;;;;;;5.10;3.00;;;;;;;;;;105353;1282;25494;-39
2022/10/09 02:30:12;;;;;;;4.80;2.70;;;;;;;;;;105256;1284;23620;-37
2022/10/09 02:32:44;;;;;;;4.50;2.80;;;;;;;;;;105297;1287;23079;-37
2022/10/09 02:35:16;;;;;;;4.70;3.00;;;;;;;;;;105270;1289;22503;-37
2022/10/09 02:37:48;;;;;;;4.40;3.00;;;;;;;;;;105278;1288;26573;-37
2022/10/09 02:40:21;;;;;;;4.50;2.90;;;;;;;;;;105229;1291;24883;-37
2022/10/09 02:42:53;;;;;;;4.80;2.70;;;;;;;;;;105123;1288;22467;-36
2022/10/09 02:45:25;;;;;;;;;;;;;;;;;;105282;1281;22608;-36
2022/10/09 02:47:57;;;;;;;3.90;2.50;;;;;;;;;;105230;1289;22458;-36
2022/10/09 02:50:29;;;;;;;4.20;2.60;;;;;;;;;;105249;1288;22475;-36
2022/10/09 02:53:00;;;;;;;4.30;2.60;;;;;;;;;;105274;1289;22488;-36
2022/10/09 02:55:32;;;;;;;4.50;2.60;;;;;;;;;;105274;1288;22479;-36
2022/10/09 02:58:04;;;;;;;4.20;2.40;;;;;;;;;;105263;1288;22639;-36
2022/10/09 03:00:39;;;;;;;3.90;2.50;;;;;;;;;;105260;1288;25232;-37
2022/10/09 03:03:11;;;;;;;5.00;2.70;;;;;;;;;;105300;1294;22462;-37
2022/10/09 03:05:43;;;;;;;5.00;2.50;;;;;;;;;;105272;1292;23180;-37
2022/10/09 03:08:15;;;;;;;4.30;2.50;;;;;;;;;;105293;1282;22501;-36
2022/10/09 03:10:47;;;;;;;4.50;2.70;;;;;;;;;;105237;1290;25392;-37
2022/10/09 03:13:19;;;;;;;5.10;2.60;;;;;;;;;;105310;1289;22464;-37
2022/10/09 03:15:51;;;;;;;4.40;2.50;;;;;;;;;;105294;1288;25338;-37
2022/10/09 03:18:26;;;;;;;3.90;2.40;;;;;;;;;;105274;1290;22483;-36
2022/10/09 03:20:59;;;;;;;4.20;2.40;;;;;;;;;;105272;1288;25378;-36
2022/10/09 03:23:32;;;;;;;4.40;2.60;;;;;;;;;;105278;1288;22481;-36
2022/10/09 03:26:07;;;;;;;4.50;2.50;;;;;;;;;;105246;1295;23832;-36
2022/10/09 03:28:44;;;;;;;4.20;2.50;;;;;;;;;;105279;1291;22988;-37
2022/10/09 03:31:18;;;;;;;4.40;2.20;;;;;;;;;;105231;1289;22478;-36
2022/10/09 03:33:50;;;;;;;4.20;2.20;;;;;;;;;;105268;1287;22504;-36
2022/10/09 03:36:22;;;;;;;4.00;2.30;;;;;;;;;;105258;1289;23804;-37
2022/10/09 03:38:54;;;;;;;4.30;2.50;;;;;;;;;;105254;1287;22494;-37
2022/10/09 03:41:26;;;;;;;4.70;2.50;;;;;;;;;;105253;1289;22462;-36
2022/10/09 03:43:58;;;;;;;4.10;2.30;;;;;;;;;;105265;1290;22490;-36
2022/10/09 03:46:31;;;;;;;4.30;2.30;;;;;;;;;;105279;1290;22756;-36
2022/10/09 03:49:03;;;;;;;4.40;2.40;;;;;;;;;;105259;1289;23616;-36
2022/10/09 03:51:35;;;;;;;3.40;2.00;;;;;;;;;;105243;1287;22653;-37
2022/10/09 03:54:07;;;;;;;4.60;2.40;;;;;;;;;;105311;1281;25385;-37
2022/10/09 03:56:39;;;;;;;4.30;2.20;;;;;;;;;;105286;1289;23122;-36
2022/10/09 03:59:15;;;;;;;4.30;2.30;;;;;;;;;;105274;1287;24312;-36
2022/10/09 04:01:48;;;;;;;4.10;2.10;;;;;;;;;;105235;1295;22483;-36
2022/10/09 04:04:20;;;;;;;4.30;2.50;;;;;;;;;;105315;1294;22437;-36
2022/10/09 04:06:52;;;;;;;4.40;2.50;;;;;;;;;;105270;1295;23962;-36
2022/10/09 04:09:24;;;;;;;4.40;2.40;;;;;;;;;;105254;1293;23918;-36
2022/10/09 04:11:59;;;;;;;4.80;2.40;;;;;;;;;;105266;1292;25211;-36
2022/10/09 04:14:31;;;;;;;4.10;2.30;;;;;;;;;;105278;1288;22733;-36
2022/10/09 04:17:03;;;;;;;5.00;2.50;;;;;;;;;;105256;1294;23788;-36
2022/10/09 04:19:36;;;;;;;4.10;2.20;;;;;;;;;;105298;1281;22475;-36
2022/10/09 04:22:08;;;;;;;5.10;2.30;;;;;;;;;;105262;1286;22668;-36
2022/10/09 04:24:40;;;;;;;4.10;2.00;;;;;;;;;;105303;1294;24606;-36
2022/10/09 04:27:12;;;;;;;4.20;2.40;;;;;;;;;;105308;1288;26440;-36
2022/10/09 04:29:44;;;;;;;4.00;2.50;;;;;;;;;;105270;1295;23460;-36
2022/10/09 04:32:18;;;;;;;4.20;2.30;;;;;;;;;;105254;1287;22629;-36
2022/10/09 04:34:50;;;;;;;4.50;2.50;;;;;;;;;;105297;1288;25361;-36
2022/10/09 04:37:23;;;;;;;6.10;2.40;;;;;;;;;;105287;1287;23847;-36
2022/10/09 04:39:55;;;;;;;4.30;2.20;;;;;;;;;;105290;1287;25275;-36
2022/10/09 04:42:27;;;;;;;6.40;2.50;;;;;;;;;;105246;1294;22451;-36
2022/10/09 04:44:59;;;;;;;4.80;2.60;;;;;;;;;;105270;1288;22468;-36
2022/10/09 04:47:33;;;;;;;5.40;2.90;;;;;;;;;;105291;1288;25828;-36
2022/10/09 04:50:07;;;;;;;5.80;2.90;;;;;;;;;;105280;1288;22476;-36
2022/10/09 04:52:40;;;;;;;4.30;2.80;;;;;;;;;;105295;1293;25512;-36
2022/10/09 04:55:13;;;;;;;4.40;2.80;;;;;;;;;;105360;1286;22431;-36
2022/10/09 04:57:45;;;;;;;4.60;2.90;;;;;;;;;;105316;1289;22429;-36
2022/10/09 05:00:18;;;;;;;4.50;2.70;;;;;;;;;;105309;1295;22573;-35
2022/10/09 05:02:50;;;;;;;4.90;2.90;;;;;;;;;;105258;1281;22546;-36
2022/10/09 05:05:22;;;;;;;5.40;2.50;;;;;;;;;;105291;1295;23781;-36
2022/10/09 05:07:54;;;;;;;4.50;2.80;;;;;;;;;;105141;1297;22866;-36
2022/10/09 05:10:27;;;;;;;4.50;2.80;;;;;;;;;;105277;1297;22465;-36
2022/10/09 05:12:59;;;;;;;5.30;2.90;;;;;;;;;;105293;1288;22494;-36
2022/10/09 05:15:31;;;;;;;5.40;3.00;;;;;;;;;;105336;1285;22592;-36
2022/10/09 05:18:04;;;;;;;4.50;2.90;;;;;;;;;;105318;1286;24299;-36
2022/10/09 05:20:44;;;;;;;5.80;3.20;;;;;;;;;;105318;1285;25206;-36
2022/10/09 05:23:16;;;;;;;5.10;3.00;;;;;;;;;;105241;1290;25209;-36
2022/10/09 05:25:57;;;;;;;4.50;3.00;;;;;;;;;;105306;1291;25195;-36
2022/10/09 05:28:30;;;;;;;5.40;3.20;;;;;;;;;;105321;1289;22543;-36
2022/10/09 05:31:07;;;;;;;4.90;2.80;;;;;;;;;;105298;1290;22468;-36
2022/10/09 05:33:39;;;;;;;5.00;3.00;;;;;;;;;;105275;1286;25272;-35
2022/10/09 05:36:13;;;;;;;5.50;2.90;;;;;;;;;;105324;1296;22462;-36
2022/10/09 05:38:45;;;;;;;5.10;3.10;;;;;;;;;;105327;1293;23663;-37
2022/10/09 05:41:19;;;;;;;5.40;3.00;;;;;;;;;;105281;1290;22746;-36
2022/10/09 05:43:52;;;;;;;5.30;2.80;;;;;;;;;;105293;1296;22454;-37
2022/10/09 05:46:28;;;;;;;5.40;3.00;;;;;;;;;;105302;1295;25829;-36
2022/10/09 05:49:06;;;;;;;4.40;3.00;;;;;;;;;;105280;1289;22603;-36
2022/10/09 05:51:41;;;;;;;5.30;3.00;;;;;;;;;;105268;1288;22480;-36
2022/10/09 05:54:17;;;;;;;5.00;3.00;;;;;;;;;;105250;1289;24516;-36
2022/10/09 05:56:51;;;;;;;4.50;3.10;;;;;;;;;;105299;1286;23788;-37
2022/10/09 05:59:24;;;;;;;5.70;3.60;;;;;;;;;;105306;1286;22482;-37
2022/10/09 06:01:58;;;;;;;4.90;3.00;;;;;;;;;;105289;1285;22451;-37
2022/10/09 06:04:33;;;;;;;5.00;3.10;;;;;;;;;;105239;1286;25258;-36
2022/10/09 06:07:05;;;;;;;5.20;2.80;;;;;;;;;;105260;1286;22472;-37
2022/10/09 06:09:37;;;;;;;5.00;3.20;;;;;;;;;;105277;1289;22493;-36
2022/10/09 06:12:10;;;;;;;5.50;3.30;;;;;;;;;;105251;1290;22485;-37
2022/10/09 06:14:42;;;;;;;5.90;3.20;;;;;;;;;;105210;1282;23848;-36
2022/10/09 06:17:16;;;;;;;4.80;3.40;;;;;;;;;;105263;1289;22465;-36
2022/10/09 06:19:49;;;;;;;5.10;3.20;;;;;;;;;;105236;1286;24107;-36
2022/10/09 06:22:22;;;;;;;5.30;3.50;;;;;;;;;;105246;1288;25950;-36
2022/10/09 06:24:55;;;;;;;4.70;3.30;;;;;;;;;;105254;1289;22534;-36
2022/10/09 06:27:29;;;;;;;4.60;3.40;;;;;;;;;;105249;1288;26429;-36
2022/10/09 06:30:02;;;;;;;5.10;3.40;;;;;;;;;;105303;1296;22489;-36
2022/10/09 06:32:34;;;;;;;4.90;3.40;;;;;;;;;;105318;1281;22515;-36
2022/10/09 06:35:09;;;;;;;5.20;3.70;;;;;;;;;;105269;1288;24657;-36
2022/10/09 06:37:41;;;;;;;5.70;3.90;;;;;;;;;;105326;1289;22493;-36
2022/10/09 06:40:13;;;;;;;5.90;3.60;;;;;;;;;;105294;1290;22469;-36
2022/10/09 06:42:46;;;;;;;4.90;3.30;;;;;;;;;;105294;1288;22467;-37
2022/10/09 06:45:18;;;;;;;4.90;3.50;;;;;;;;;;105280;1285;22718;-36
2022/10/09 06:47:50;;;;;;;4.40;3.50;;;;;;;;;;105324;1288;22931;-36
2022/10/09 06:50:23;;;;;;;4.70;3.20;;;;;;;;;;105290;1286;22475;-36
2022/10/09 06:52:55;;;;;;;5.00;3.50;;;;;;;;;;105294;1290;23912;-37
2022/10/09 06:55:28;;;;;;;4.90;3.40;;;;;;;;;;105230;1288;22531;-36
2022/10/09 06:58:01;;;;;;;5.30;3.50;;;;;;;;;;105263;1288;22514;-36
2022/10/09 07:00:34;;;;;;;4.50;3.30;;;;;;;;;;105288;1289;24218;-36
2022/10/09 07:03:06;;;;;;;5.00;3.50;;;;;;;;;;105254;1291;22493;-36
2022/10/09 07:05:41;;;;;;;4.70;3.30;;;;;;;;;;105228;1288;23831;-37
2022/10/09 07:08:13;;;;;;;4.20;3.20;;;;;;;;;;105297;1290;22470;-37
2022/10/09 07:10:45;;;;;;;4.80;3.50;;;;;;;;;;105292;1285;22460;-36
2022/10/09 07:13:17;;;;;;;4.80;3.10;;;;;;;;;;105291;1286;22479;-36
2022/10/09 07:15:51;;;;;;;4.80;2.90;;;;;;;;;;105237;1289;26600;-36
2022/10/09 07:18:23;;;;;;;5.20;2.80;;;;;;;;;;105260;1289;22477;-36
2022/10/09 07:20:56;;;;;;;4.60;2.90;;;;;;;;;;105223;1290;22528;-36
2022/10/09 07:23:33;;;;;;;4.00;2.80;;;;;;;;;;105283;1289;22461;-36
2022/10/09 07:26:14;;;;;;;3.90;2.70;;;;;;;;;;105261;1288;22562;-36
2022/10/09 07:28:47;;;;;;;4.20;2.40;;;;;;;;;;105329;1282;23138;-36
2022/10/09 07:31:19;;;;;;;4.50;2.50;;;;;;;;;;105309;1285;22481;-36
2022/10/09 07:33:53;;;;;;;4.00;2.50;;;;;;;;;;105281;1290;22535;-36
2022/10/09 07:36:26;;;;;;;3.80;2.30;;;;;;;;;;105264;1292;25541;-37
2022/10/09 07:38:59;;;;;;;3.80;2.20;;;;;;;;;;105269;1288;22525;-36
2022/10/09 07:41:32;;;;;;;4.20;2.60;;;;;;;;;;105290;1289;22481;-37
2022/10/09 07:44:04;;;;;;;4.80;2.90;;;;;;;;;;105258;1289;22480;-36
2022/10/09 07:46:38;;;;;;;5.80;2.60;;;;;;;;;;105222;1289;22486;-36
2022/10/09 07:49:10;;;;;;;4.60;2.40;;;;;;;;;;105260;1296;24312;-36
2022/10/09 07:51:42;;;;;;;5.40;3.10;;;;;;;;;;105280;1290;24846;-36
2022/10/09 07:54:14;;;;;;;5.00;2.80;;;;;;;;;;105288;1286;22718;-36
2022/10/09 07:56:47;;;;;;;4.20;2.50;;;;;;;;;;105264;1282;25236;-37
2022/10/09 07:59:19;;;;;;;5.30;2.60;;;;;;;;;;105239;1289;22587;-37
2022/10/09 08:01:51;;;;;;;6.00;3.30;;;;;;;;;;105253;1289;22473;-37
2022/10/09 08:04:23;;;;;;;7.30;3.30;;;;;;;;;;105228;1282;22475;-37
2022/10/09 08:06:57;;;;;;;5.50;2.90;;;;;;;;;;105223;1285;24337;-36
2022/10/09 08:09:29;;;;;;;4.70;2.80;;;;;;;;;;105288;1285;24352;-36
2022/10/09 08:12:01;;;;;;;4.70;2.60;;;;;;;;;;105302;1289;24052;-36
2022/10/09 08:14:34;;;;;;;5.40;3.00;;;;;;;;;;105279;1286;22548;-36
2022/10/09 08:17:06;;;;;;;5.00;3.00;;;;;;;;;;105223;1281;22461;-36
2022/10/09 08:19:38;;;;;;;6.10;2.90;;;;;;;;;;105269;1289;22568;-36
2022/10/09 08:22:10;;;;;;;6.00;3.40;;;;;;;;;;105272;1290;25265;-36
2022/10/09 08:24:42;;;;;;;6.10;3.40;;;;;;;;;;105262;1290;22471;-36
2022/10/09 08:27:14;;;;;;;5.70;3.50;;;;;;;;;;105257;1286;22471;-36
2022/10/09 08:29:46;;;;;;;5.40;3.40;;;;;;;;;;105316;1288;22546;-37
2022/10/09 08:32:17;;;;;;;6.30;3.20;;;;;;;;;;105248;1289;24225;-36
2022/10/09 08:34:51;;;;;;;5.60;3.20;;;;;;;;;;105300;1285;25270;-36
2022/10/09 08:37:23;;;;;;;5.90;3.70;;;;;;;;;;105234;1289;22477;-36
2022/10/09 08:39:56;;;;;;;6.10;3.40;;;;;;;;;;105264;1288;22614;-36
2022/10/09 08:42:38;;;;;;;5.80;3.30;;;;;;;;;;105093;1291;22454;-36
2022/10/09 08:45:17;;;;;;;4.90;3.20;;;;;;;;;;105272;1286;22912;-36
2022/10/09 08:47:56;;;;;;;6.70;3.40;;;;;;;;;;105372;1289;22471;-36
2022/10/09 08:50:31;;;;;;;5.70;3.30;;;;;;;;;;105310;1289;22530;-36
2022/10/09 08:53:12;;;;;;;4.70;3.30;;;;;;;;;;105282;1288;22517;-36
2022/10/09 08:55:51;;;;;;;5.60;3.50;;;;;;;;;;105209;1287;23147;-36
2022/10/09 08:58:29;;;;;;;5.30;3.30;;;;;;;;;;105293;1281;25256;-36
2022/10/09 09:01:10;;;;;;;4.60;3.00;;;;;;;;;;105274;1281;22850;-36
2022/10/09 09:03:57;;;;;;;4.90;3.00;;;;;;;;;;105263;1288;22544;-36
2022/10/09 09:06:40;;;;;;;5.20;3.10;;;;;;;;;;105211;1288;22599;-36
2022/10/09 09:09:23;;;;;;;5.80;2.80;;;;;;;;;;105299;1288;24245;-35
2022/10/09 09:12:07;;;;;;;5.30;3.00;;;;;;;;;;105268;1288;22421;-37
2022/10/09 09:14:53;;;;;;;5.50;2.70;;;;;;;;;;105267;1281;22488;-37
2022/10/09 09:17:37;;;;;;;5.30;3.20;;;;;;;;;;105228;1289;22467;-38
2022/10/09 09:20:18;;;;;;;5.30;3.20;;;;;;;;;;105272;1286;22516;-38
2022/10/09 09:22:51;;;;;;;6.60;3.30;;;;;;;;;;105280;1282;22481;-38
2022/10/09 09:25:27;;;;;;;5.60;2.90;;;;;;;;;;105261;1288;23102;-37
2022/10/09 09:28:13;;;;;;;4.80;3.10;;;;;;;;;;105260;1287;22484;-38
2022/10/09 09:30:50;;;;;;;5.80;3.10;;;;;;;;;;105281;1282;22553;-37
2022/10/09 09:33:29;;;;;;;5.30;2.80;;;;;;;;;;105255;1281;24424;-38
2022/10/09 09:36:10;;;;;;;5.40;3.20;;;;;;;;;;105256;1289;24013;-38
2022/10/09 09:38:42;;;;;;;4.60;3.10;;;;;;;;;;105216;1289;22476;-38
2022/10/09 09:41:14;;;;;;;4.70;2.90;;;;;;;;;;105266;1282;22563;-38
2022/10/09 09:43:46;;;;;;;4.40;2.90;;;;;;;;;;105236;1295;22528;-38
2022/10/09 09:46:23;;;;;;;4.60;3.00;;;;;;;;;;105280;1282;22473;-37
2022/10/09 09:48:55;;;;;;;4.40;2.70;;;;;;;;;;105251;1285;22489;-37
2022/10/09 09:51:32;;;;;;;4.50;2.90;;;;;;;;;;105283;1289;26544;-38
2022/10/09 09:54:08;;;;;;;4.80;3.40;;;;;;;;;;105283;1288;24492;-38
2022/10/09 09:56:43;;;;;;;5.40;3.00;;;;;;;;;;105192;1281;71090;-37
2022/10/09 09:59:37;;;;;;;4.60;2.90;;;;;;;;;;105258;1289;22462;-38
2022/10/09 10:02:17;;;;;;;4.40;2.80;;;;;;;;;;105254;1282;22592;-38
2022/10/09 10:05:02;;;;;;;4.40;2.80;;;;;;;;;;105108;1291;22490;-38
2022/10/09 10:07:36;;;;;;;4.40;2.60;;;;;;;;;;105216;1289;22509;-38
2022/10/09 10:10:17;;;;;;;4.80;2.80;;;;;;;;;;105302;1289;22481;-38
2022/10/09 10:12:55;;;;;;;4.00;2.50;;;;;;;;;;105347;1281;22531;-37
2022/10/09 10:15:31;;;;;;;4.30;2.80;;;;;;;;;;105267;1281;22608;-38
2022/10/09 10:18:12;;;;;;;4.20;3.00;;;;;;;;;;105259;1295;22681;-37
2022/10/09 10:20:48;;;;;;;5.00;3.00;;;;;;;;;;105283;1285;22476;-37
2022/10/09 10:23:32;;;;;;;4.80;3.00;;;;;;;;;;105276;1282;23740;-37
2022/10/09 10:26:10;;;;;;;5.30;3.50;;;;;;;;;;105278;1291;22431;-37
2022/10/09 10:28:51;;;;;;;4.30;3.10;;;;;;;;;;105266;1290;22528;-38
2022/10/09 10:31:38;;;;;;;4.60;2.80;;;;;;;;;;105267;1289;23426;-38
2022/10/09 10:34:21;;;;;;;4.80;3.00;;;;;;;;;;105269;1289;22638;-38
2022/10/09 10:36:59;;;;;;;5.50;3.00;;;;;;;;;;105278;1281;23804;-38
2022/10/09 10:39:39;;;;;;;4.90;3.00;;;;;;;;;;105243;1281;22471;-38
2022/10/09 10:42:21;;;;;;;4.90;3.10;;;;;;;;;;105222;1289;23702;-37
2022/10/09 10:45:02;;;;;;;5.60;3.30;;;;;;;;;;105234;1286;22542;-37
2022/10/09 10:47:39;;;;;;;4.50;3.00;;;;;;;;;;105246;1288;22469;-38
2022/10/09 10:50:18;;;;;;;4.70;2.80;;;;;;;;;;105209;1294;22527;-38
2022/10/09 10:53:04;;;;;;;4.10;2.90;;;;;;;;;;105252;1289;23446;-38
2022/10/09 10:55:51;;;;;;;4.30;2.80;;;;;;;;;;105251;1281;22478;-38
2022/10/09 10:58:30;;;;;;;5.10;2.80;;;;;;;;;;105226;1281;22918;-37
2022/10/09 11:01:24;;;;;;;4.50;3.00;;;;;;;;;;105280;1289;25256;-36
2022/10/09 11:04:39;;;;;;;4.80;3.20;;;;;;;;;;105270;1281;25243;-37
2022/10/09 11:07:19;;;;;;;;;;;;;;;;;;105252;1282;22470;-37
2022/10/09 11:10:05;;;;;;;4.20;2.60;;;;;;;;;;105232;1288;22506;-37
2022/10/09 11:12:46;;;;;;;4.30;2.70;;;;;;;;;;105267;1281;22480;-37
2022/10/09 11:15:36;;;;;;;4.70;2.80;;;;;;;;;;105243;1288;22629;-37
2022/10/09 11:18:27;;;;;;;5.40;2.90;;;;;;;;;;105250;1288;24316;-36
2022/10/09 11:21:17;;;;;;;4.70;2.80;;;;;;;;;;105252;1289;24986;-36
2022/10/09 11:24:12;;;;;;;4.60;2.80;;;;;;;;;;105253;1289;22534;-38
2022/10/09 11:26:52;;;;;;;4.40;2.60;;;;;;;;;;105270;1282;22471;-38
2022/10/09 11:29:31;;;;;;;4.50;2.70;;;;;;;;;;105234;1286;22484;-38
2022/10/09 11:32:12;;;;;;;4.00;2.70;;;;;;;;;;105295;1283;25243;-36
2022/10/09 11:34:50;;;;;;;5.20;2.80;;;;;;;;;;105319;1286;22593;-36
2022/10/09 11:37:27;;;;;;;4.50;2.80;;;;;;;;;;105291;1289;22488;-36
2022/10/09 11:39:59;;;;;;;4.50;2.80;;;;;;;;;;105254;1282;25287;-37
2022/10/09 11:42:31;;;;;;;4.10;2.60;;;;;;;;;;105256;1282;22494;-36
2022/10/09 11:45:21;;;;;;;4.60;2.90;;;;;;;;;;105259;1288;21642;-36
2022/10/09 11:48:03;;;;;;;4.10;2.60;;;;;;;;;;105281;1281;22474;-38
2022/10/09 11:50:53;;;;;;;5.10;3.20;;;;;;;;;;105233;1288;22525;-37
2022/10/09 11:53:27;;;;;;;5.20;2.80;;;;;;;;;;105320;1288;22533;-37
2022/10/09 11:56:08;;;;;;;4.10;2.60;;;;;;;;;;105269;1282;22598;-37
2022/10/09 11:58:40;;;;;;;4.50;3.00;;;;;;;;;;105268;1286;24428;-38
2022/10/09 12:01:26;;;;;;;4.50;2.90;;;;;;;;;;105217;1281;22468;-38
2022/10/09 12:04:09;;;;;;;5.20;2.90;;;;;;;;;;105265;1281;22486;-38
2022/10/09 12:06:52;;;;;;;4.30;2.70;;;;;;;;;;105246;1289;22471;-38
2022/10/09 12:09:29;;;;;;;4.60;2.80;;;;;;;;;;105236;1282;22486;-36
2022/10/09 12:12:06;;;;;;;4.50;2.80;;;;;;;;;;105399;1288;23830;-37
2022/10/09 12:14:40;;;;;;;4.50;2.90;;;;;;;;;;105300;1288;23862;-36
2022/10/09 12:17:34;;;;;;;4.40;2.90;;;;;;;;;;105270;1285;24359;-36
2022/10/09 12:20:19;;;;;;;4.60;3.00;;;;;;;;;;105223;1288;22046;-36
2022/10/09 12:22:56;;;;;;;4.10;2.90;;;;;;;;;;105245;1281;22486;-36
2022/10/09 12:25:32;;;;;;;5.30;3.00;;;;;;;;;;105251;1282;22481;-36
2022/10/09 12:28:04;;;;;;;4.10;2.50;;;;;;;;;;105274;1289;22499;-35
2022/10/09 12:30:42;;;;;;;4.50;2.90;;;;;;;;;;105218;1285;22478;-36
2022/10/09 12:33:24;;;;;;;4.20;2.70;;;;;;;;;;105301;1286;22477;-36
2022/10/09 12:36:06;;;;;;;4.40;3.10;;;;;;;;;;105314;1281;25249;-36
2022/10/09 12:38:39;;;;;;;5.00;2.70;;;;;;;;;;105301;1289;22907;-37
2022/10/09 12:41:20;;;;;;;4.30;2.70;;;;;;;;;;105219;1283;22452;-36
2022/10/09 12:43:55;;;;;;;4.60;2.90;;;;;;;;;;105219;1288;22464;-36
2022/10/09 12:46:33;;;;;;;4.00;2.60;;;;;;;;;;105264;1291;22551;-37
2022/10/09 12:49:17;;;;;;;4.30;3.00;;;;;;;;;;105278;1282;22476;-37
2022/10/09 12:51:56;;;;;;;4.30;2.80;;;;;;;;;;105272;1282;22488;-37
2022/10/09 12:54:31;;;;;;;4.10;2.80;;;;;;;;;;105297;1288;22508;-36
2022/10/09 12:57:03;;;;;;;3.80;2.60;;;;;;;;;;105294;1282;22632;-35
2022/10/09 12:59:35;;;;;;;3.90;2.50;;;;;;;;;;105280;1282;22472;-36
2022/10/09 13:02:14;;;;;;;4.50;2.80;;;;;;;;;;105234;1289;22580;-37
2022/10/09 13:04:59;;;;;;;4.30;2.80;;;;;;;;;;105263;1282;22525;-37
2022/10/09 13:07:33;;;;;;;4.30;3.00;;;;;;;;;;105269;1289;22516;-35
2022/10/09 13:10:16;;;;;;;4.00;2.50;;;;;;;;;;105250;1282;22482;-38
2022/10/09 13:12:52;;;;;;;;;;;;;;;;;;105304;1288;25429;-37
2022/10/09 13:15:35;;;;;;;4.10;2.80;;;;;;;;;;105307;1285;22521;-37
2022/10/09 13:18:23;;;;;;;4.10;2.70;;;;;;;;;;105326;1288;22476;-36
2022/10/09 13:21:06;;;;;;;4.20;2.60;;;;;;;;;;105331;1282;22440;-38
2022/10/09 13:23:40;;;;;;;4.40;2.70;;;;;;;;;;105247;1289;27747;-36
2022/10/09 13:26:25;;;;;;;4.00;2.60;;;;;;;;;;105268;1288;22455;-36
2022/10/09 13:29:01;;;;;;;4.40;2.80;;;;;;;;;;105243;1282;22468;-36
2022/10/09 13:31:35;;;;;;;4.40;2.70;;;;;;;;;;105237;1289;22570;-36
2022/10/09 13:34:17;;;;;;;4.60;3.10;;;;;;;;;;105280;1282;29355;-36
2022/10/09 13:36:49;;;;;;;4.50;2.90;;;;;;;;;;105299;1282;22598;-36
2022/10/09 13:39:21;;;;;;;4.30;2.60;;;;;;;;;;105253;1286;22481;-36
2022/10/09 13:41:56;;;;;;;4.30;2.70;;;;;;;;;;105236;1283;22502;-36
2022/10/09 13:44:28;;;;;;;4.40;2.70;;;;;;;;;;105263;1282;28573;-37
2022/10/09 13:47:02;;;;;;;5.10;2.90;;;;;;;;;;105263;1289;22582;-37
2022/10/09 13:49:34;;;;;;;4.00;2.40;;;;;;;;;;105251;1289;22492;-36
2022/10/09 13:52:08;;;;;;;4.80;2.80;;;;;;;;;;105266;1282;22472;-35
2022/10/09 13:54:40;;;;;;;5.00;2.80;;;;;;;;;;105310;1282;28041;-35
2022/10/09 13:57:12;;;;;;;4.20;2.80;;;;;;;;;;105277;1288;22519;-36
2022/10/09 13:59:44;;;;;;;4.60;2.60;;;;;;;;;;105308;1288;22748;-36
2022/10/09 14:02:16;;;;;;;4.40;2.70;;;;;;;;;;105307;1290;23088;-36
2022/10/09 14:04:48;;;;;;;4.10;2.60;;;;;;;;;;105302;1281;24223;-36
2022/10/09 14:07:20;;;;;;;4.90;2.90;;;;;;;;;;105345;1281;22477;-35
2022/10/09 14:09:52;;;;;;;4.70;3.10;;;;;;;;;;105122;1285;26451;-35
2022/10/09 14:12:24;;;;;;;4.50;2.90;;;;;;;;;;105271;1288;22497;-36
2022/10/09 14:14:56;;;;;;;4.40;3.00;;;;;;;;;;105256;1282;27966;-36
2022/10/09 14:17:29;;;;;;;5.00;2.90;;;;;;;;;;105319;1290;22538;-37
2022/10/09 14:20:01;;;;;;;5.00;3.10;;;;;;;;;;105279;1282;22648;-37
2022/10/09 14:22:33;;;;;;;5.60;3.20;;;;;;;;;;105319;1282;22482;-37
2022/10/09 14:25:07;;;;;;;5.40;3.50;;;;;;;;;;105250;1289;24606;-37
2022/10/09 14:27:39;;;;;;;5.90;3.50;;;;;;;;;;105281;1282;22472;-37
2022/10/09 14:30:16;;;;;;;8.00;4.60;;;;;;;;;;105246;1282;21698;-37
2022/10/09 14:32:48;;;;;;;11.90;6.00;;;;;;;;;;105254;1288;22487;-37
2022/10/09 14:35:20;;;;;;;7.50;4.00;;;;;;;;;;105240;1290;22478;-37
2022/10/09 14:37:52;;;;;;;9.40;4.70;;;;;;;;;;105305;1288;22445;-36
2022/10/09 14:40:24;;;;;;;8.80;4.60;;;;;;;;;;105314;1288;22471;-37
2022/10/09 14:42:56;;;;;;;9.10;4.40;;;;;;;;;;105311;1288;22492;-37
2022/10/09 14:45:28;;;;;;;9.80;4.60;;;;;;;;;;105221;1298;22482;-37
2022/10/09 14:48:00;;;;;;;8.40;4.20;;;;;;;;;;105275;1285;22474;-37
2022/10/09 14:50:36;;;;;;;7.50;4.00;;;;;;;;;;105299;1282;22526;-37
2022/10/09 14:53:08;;;;;;;8.20;4.30;;;;;;;;;;105287;1281;22470;-37
2022/10/09 14:55:40;;;;;;;7.40;4.00;;;;;;;;;;105288;1281;22660;-36
2022/10/09 14:58:12;;;;;;;8.60;4.50;;;;;;;;;;105300;1288;22469;-36
2022/10/09 15:00:49;;;;;;;7.10;4.40;;;;;;;;;;105283;1288;22606;-36
2022/10/09 15:03:21;;;;;;;9.60;4.10;;;;;;;;;;105320;1282;22465;-36
2022/10/09 15:05:56;;;;;;;7.50;4.10;;;;;;;;;;105219;1289;23467;-36
2022/10/09 15:08:30;;;;;;;7.90;4.30;;;;;;;;;;105275;1289;25379;-36
2022/10/09 15:11:02;;;;;;;7.40;4.00;;;;;;;;;;105303;1288;22602;-36
2022/10/09 15:13:34;;;;;;;;;;;;;;;;;;105302;1289;22456;-36
2022/10/09 15:16:10;;;;;;;8.10;4.30;;;;;;;;;;105269;1282;24064;-36
2022/10/09 15:18:43;;;;;;;7.90;4.30;;;;;;;;;;105291;1282;22497;-36
2022/10/09 15:21:18;;;;;;;9.40;4.20;;;;;;;;;;105261;1289;22481;-36